Latest Weather Observations for Dum In Mirrie

IDD60801

Issued at 4:31 pm CST Friday 31 July 2015 (issued every 30 minutes, with the page automatically refreshed every 10 minutes)

About weather observations | Map of weather stations | Latest weather observations for NT | Other Formats
Station Details ID: 014277 Name: DUM IN MIRRIE AIRSTRIP Lat: -12.63 Lon: 130.37 Height: 3.5 m
Data from the previous 72 hours. | See also: Recent months at Dum In Mirrie
Date/Time
CST
Temp
°C
App
Temp
°C
Dew
Point
Rel
Hum
%
Delta-T
°C
Wind Press
QNH
hPa
Press
MSL
hPa
Rain
since 9 am
mm
Dir
 
Spd
km/h
Gust
km/h
Spd
kts
Gust
kts
31/04:30pm 28.7 30.0 19.3 56 6.1 N 11 20 6 11 1011.1 1011.1 0.0
31/04:00pm 28.8 29.8 19.4 56 6.1 N 13 20 7 11 1011.2 1011.2 0.0
31/03:30pm 28.6 30.4 20.3 60 5.5 NNW 11 20 6 11 1011.3 1011.3 0.0
31/03:00pm 29.0 29.9 19.3 55 6.3 NNW 13 20 7 11 1011.6 1011.6 0.0
31/02:30pm 30.0 31.2 19.1 52 7.1 N 11 20 6 11 1012.0 1012.0 0.0
31/02:00pm 30.3 30.6 17.0 44 8.4 NE 11 19 6 10 1012.5 1012.5 0.0
31/01:30pm 31.4 29.4 12.7 32 11.1 ENE 15 24 8 13 1012.9 1012.9 0.0
31/01:00pm 31.2 28.8 12.5 31 11.1 ENE 17 24 9 13 1013.7 1013.7 0.0
31/12:30pm 30.3 27.8 12.2 33 10.6 ENE 17 26 9 14 1014.2 1014.2 0.0
31/12:00pm 29.6 27.0 12.1 34 10.2 E 17 30 9 16 1014.6 1014.6 0.0
31/11:30am 29.6 28.0 12.9 35 9.9 E 13 20 7 11 1015.1 1015.1 0.0
31/11:00am 28.3 27.0 13.8 41 8.6 ENE 13 24 7 13 1015.6 1015.6 0.0
31/10:30am 27.1 26.9 16.7 53 6.5 E 13 20 7 11 1015.9 1015.9 0.0
31/10:00am 26.6 28.5 19.7 66 4.5 E 9 15 5 8 1015.9 1015.9 0.0
31/09:30am 26.1 28.5 20.9 73 3.4 E 9 15 5 8 1015.9 1015.9 0.0
31/09:00am 25.3 28.2 21.0 77 2.8 E 7 11 4 6 1015.8 1015.8 0.0
31/08:30am 23.9 26.9 21.2 85 1.8 ENE 7 13 4 7 1015.7 1015.7 0.0
31/08:00am 21.9 25.0 21.1 95 0.5 E 6 9 3 5 1015.5 1015.5 0.0
31/07:30am 21.0 23.9 20.7 98 0.2 E 6 7 3 4 1015.2 1015.2 0.0
31/07:00am 20.1 22.4 19.8 98 0.2 E 7 9 4 5 1015.0 1015.0 0.0
31/06:30am 18.1 20.0 17.6 97 0.3 E 4 6 2 3 1014.7 1014.7 0.0
31/06:00am 19.5 22.1 19.2 98 0.2 ENE 4 6 2 3 1014.5 1014.5 0.0
31/05:30am 18.6 20.7 18.1 97 0.3 E 4 6 2 3 1014.5 1014.5 0.0
31/05:00am 18.6 20.7 18.1 97 0.3 ENE 4 4 2 2 1014.5 1014.5 0.0
31/04:30am 19.3 21.7 18.8 97 0.3 ENE 4 6 2 3 1014.5 1014.5 0.0
31/04:00am 18.2 20.2 17.0 93 0.7 ENE 2 7 1 4 1014.5 1014.5 0.0
31/03:30am 19.3 21.5 18.3 94 0.6 ESE 4 4 2 2 1014.4 1014.4 0.0
31/03:00am 19.9 22.6 18.7 93 0.7 ESE 2 4 1 2 1014.5 1014.5 0.0
31/02:30am 20.5 23.3 19.7 95 0.5 SSE 4 6 2 3 1014.5 1014.5 0.0
31/02:00am 20.7 23.4 19.5 93 0.8 SSE 4 6 2 3 1014.8 1014.8 0.0
31/01:30am 20.7 23.1 18.8 89 1.2 SSE 4 4 2 2 1014.9 1014.9 0.0
31/01:00am 21.6 24.6 20.1 91 1.0 SSE 4 6 2 3 1015.1 1015.1 0.0
31/12:30am 21.7 25.0 20.0 90 1.1 S 2 4 1 2 1015.2 1015.2 0.0
31/12:00am 22.1 25.6 20.4 90 1.1 SSW 2 4 1 2 1015.4 1015.4 0.0
 
Date/Time
CST
Temp
°C
App
Temp
°C
Dew
Point
Rel
Hum
%
Delta-T
°C
Wind Press
QNH
hPa
Press
MSL
hPa
Rain
since 9 am
mm
Dir
 
Spd
km/h
Gust
km/h
Spd
kts
Gust
kts
30/11:30pm 22.4 25.5 20.3 88 1.4 SSW 4 6 2 3 1015.6 1015.6 0.0
30/11:00pm 23.5 27.2 21.4 88 1.4 SSW 4 6 2 3 1015.7 1015.7 0.0
30/10:30pm 24.0 27.8 21.7 87 1.5 SSW 4 6 2 3 1015.7 1015.7 0.0
30/10:00pm 24.2 27.8 21.3 84 1.9 SW 4 7 2 4 1015.6 1015.6 0.0
30/09:30pm 24.6 28.7 20.7 79 2.5 CALM 0 2 0 1 1015.5 1015.5 0.0
30/09:00pm 24.8 28.6 20.9 79 2.6 SW 2 4 1 2 1015.3 1015.3 0.0
30/08:30pm 25.1 28.4 21.4 80 2.4 WSW 6 9 3 5 1014.9 1014.9 0.0
30/08:00pm 25.2 28.5 21.5 80 2.5 WSW 6 9 3 5 1014.5 1014.5 0.0
30/07:30pm 25.2 28.2 21.3 79 2.6 W 7 13 4 7 1013.9 1013.9 0.0
30/07:00pm 25.2 28.3 21.1 78 2.7 W 6 9 3 5 1013.6 1013.6 0.0
30/06:30pm 25.9 29.0 21.1 75 3.2 W 6 9 3 5 1013.5 1013.5 0.0
30/06:00pm 27.2 30.3 21.0 69 4.1 WNW 6 9 3 5 1013.2 1013.2 0.0
30/05:30pm 27.5 30.0 20.3 65 4.7 NNW 7 13 4 7 1012.9 1012.9 0.0
30/05:00pm 27.9 29.4 20.5 64 4.9 N 13 20 7 11 1012.8 1012.8 0.0
30/04:30pm 28.2 29.5 20.2 62 5.2 N 13 20 7 11 1012.7 1012.7 0.0
30/04:00pm 28.2 28.3 20.0 61 5.4 NNE 19 30 10 16 1012.6 1012.6 0.0
30/03:30pm 29.4 30.0 20.3 58 6.0 NNE 17 26 9 14 1012.8 1012.8 0.0
30/03:00pm 28.9 29.2 19.5 57 6.1 N 17 26 9 14 1013.0 1013.0 0.0
30/02:30pm 30.2 31.0 19.9 54 6.8 N 15 24 8 13 1013.4 1013.4 0.0
30/02:00pm 32.5 31.8 15.5 36 10.6 NE 13 19 7 10 1013.9 1013.9 0.0
30/01:30pm 31.8 30.5 14.9 36 10.4 ENE 15 26 8 14 1014.5 1014.5 0.0
30/01:00pm 32.3 31.9 15.3 35 10.5 ENE 11 20 6 11 1015.0 1015.0 0.0
30/12:30pm 31.4 30.6 15.0 37 10.1 E 13 22 7 12 1015.6 1015.6 0.0
30/12:00pm 30.7 28.6 14.8 38 9.7 E 19 28 10 15 1016.0 1016.0 0.0
30/11:30am 30.6 29.2 15.5 40 9.3 E 17 26 9 14 1016.2 1016.2 0.0
30/11:00am 29.6 28.4 15.0 41 8.9 ESE 15 28 8 15 1016.6 1016.6 0.0
30/10:30am 28.2 26.6 15.1 44 8.0 E 17 26 9 14 1016.7 1016.7 0.0
30/10:00am 27.5 26.6 15.8 48 7.2 ESE 15 26 8 14 1016.7 1016.7 0.0
30/09:30am 26.0 25.6 15.1 51 6.6 ESE 11 22 6 12 1016.8 1016.8 0.0
30/09:00am 24.6 24.9 15.0 55 5.7 E 7 13 4 7 1016.7 1016.7 0.0
30/08:30am 23.8 24.9 16.6 64 4.4 E 6 9 3 5 1016.5 1016.5 0.0
30/08:00am 21.7 23.4 17.1 75 2.8 ENE 4 6 2 3 1016.2 1016.2 0.0
30/07:30am 19.2 20.2 16.4 84 1.7 E 6 7 3 4 1015.9 1015.9 0.0
30/07:00am 17.9 18.9 16.4 91 0.9 E 6 9 3 5 1015.7 1015.7 0.0
30/06:30am 17.3 18.3 16.3 94 0.6 E 6 7 3 4 1015.7 1015.7 0.0
30/06:00am 16.9 18.0 15.6 92 0.8 ENE 4 6 2 3 1015.6 1015.6 0.0
30/05:30am 17.5 18.7 15.8 90 1.0 ENE 4 6 2 3 1015.5 1015.5 0.0
30/05:00am 18.5 20.0 16.7 89 1.1 E 4 6 2 3 1015.3 1015.3 0.0
30/04:30am 19.0 20.8 18.2 95 0.5 E 6 7 3 4 1015.2 1015.2 0.0
30/04:00am 19.5 21.6 19.0 97 0.3 E 6 7 3 4 1015.3 1015.3 0.0
30/03:30am 18.2 20.6 17.0 93 0.7 CALM 0 0 0 0 1015.5 1015.5 0.0
30/03:00am 18.2 20.6 17.0 93 0.7 CALM 0 0 0 0 1015.7 1015.7 0.0
30/02:30am 18.9 21.2 17.7 93 0.7 ESE 2 2 1 1 1015.9 1015.9 0.0
30/02:00am 19.2 21.2 17.9 92 0.8 SSE 4 4 2 2 1016.0 1016.0 0.0
30/01:30am 19.2 21.9 17.7 91 0.9 CALM 0 0 0 0 1016.2 1016.2 0.0
30/01:00am 19.3 22.0 17.8 91 0.9 CALM 0 0 0 0 1016.3 1016.3 0.0
30/12:30am 20.1 23.2 19.4 96 0.4 N 2 6 1 3 1016.3 1016.3 0.0
30/12:00am 19.9 22.8 19.1 95 0.5 NNW 2 4 1 2 1016.2 1016.2 0.0
 
Date/Time
CST
Temp
°C
App
Temp
°C
Dew
Point
Rel
Hum
%
Delta-T
°C
Wind Press
QNH
hPa
Press
MSL
hPa
Rain
since 9 am
mm
Dir
 
Spd
km/h
Gust
km/h
Spd
kts
Gust
kts
29/11:30pm 19.4 22.3 18.1 92 0.8 CALM 0 0 0 0 1016.2 1016.2 0.0
29/11:00pm 19.2 21.7 17.3 89 1.2 CALM 0 0 0 0 1016.2 1016.2 0.0
29/10:30pm 19.8 22.7 18.1 90 1.0 CALM 0 2 0 1 1016.1 1016.1 0.0
29/10:00pm 19.9 22.7 17.9 88 1.2 CALM 0 2 0 1 1016.1 1016.1 0.0
29/09:30pm 20.5 23.3 17.9 85 1.6 CALM 0 0 0 0 1016.0 1016.0 0.0
29/09:00pm 21.6 24.6 18.4 82 2.0 CALM 0 0 0 0 1015.9 1015.9 0.0
29/08:30pm 22.2 24.9 19.4 84 1.8 WNW 4 4 2 2 1015.8 1015.8 0.0
29/08:00pm 22.9 25.6 19.5 81 2.2 NW 4 6 2 3 1015.5 1015.5 0.0
29/07:30pm 23.6 26.2 19.3 77 2.7 NW 4 4 2 2 1015.1 1015.1 0.0
29/07:00pm 25.0 27.8 19.6 72 3.5 NW 4 6 2 3 1014.8 1014.8 0.0
29/06:30pm 25.9 28.8 19.8 69 4.0 NW 4 9 2 5 1014.5 1014.5 0.0
29/06:00pm 27.2 29.2 18.8 60 5.4 NW 6 11 3 6 1014.1 1014.1 0.0
29/05:30pm 27.8 29.6 18.8 58 5.8 NW 7 13 4 7 1013.8 1013.8 0.0
29/05:00pm 29.0 29.9 17.5 49 7.3 N 9 19 5 10 1013.6 1013.6 0.0
29/04:30pm 31.9 31.0 13.6 32 11.0 E 11 20 6 11 1013.4 1013.4 0.0
29/04:00pm 32.0 30.6 12.3 30 11.6 E 11 17 6 9 1013.4 1013.4 0.0
29/03:30pm 31.9 30.8 13.2 32 11.2 ENE 11 19 6 10 1013.5 1013.5 0.0
29/03:00pm 31.7 30.2 13.0 32 11.2 E 13 24 7 13 1013.9 1013.9 0.0
29/02:30pm 31.5 29.5 12.8 32 11.1 E 15 20 8 11 1014.2 1014.2 0.0
29/02:00pm 31.3 29.4 13.1 33 10.9 E 15 22 8 12 1014.6 1014.6 0.0
29/01:30pm 31.2 29.6 13.9 35 10.4 ESE 15 24 8 13 1015.0 1015.0 0.0
29/01:00pm 30.3 28.0 13.1 34 10.2 E 17 26 9 14 1015.5 1015.5 0.0
29/12:30pm 30.0 27.7 12.9 35 10.1 ESE 17 28 9 15 1016.1 1016.1 0.0
29/12:00pm 29.7 27.3 12.6 35 10.0 E 17 28 9 15 1016.6 1016.6 0.0
29/11:30am 29.4 27.6 13.2 37 9.6 E 15 24 8 13 1017.0 1017.0 0.0
29/11:00am 27.8 24.6 11.8 37 9.2 ESE 20 33 11 18 1017.5 1017.5 0.0
29/10:30am 27.1 24.6 12.3 39 8.6 ESE 17 28 9 15 1017.7 1017.7 0.0
29/10:00am 25.9 23.7 12.0 42 8.0 ESE 15 30 8 16 1017.9 1017.9 0.0
29/09:30am 24.7 22.6 12.3 46 7.1 ESE 15 24 8 13 1018.0 1018.0 0.0
29/09:00am 23.3 22.7 12.3 50 6.2 SE 7 11 4 6 1018.0 1018.0 0.0
29/08:30am 22.1 21.2 11.5 51 5.9 SSE 7 13 4 7 1017.7 1017.7 0.0
29/08:00am 21.2 20.3 10.7 51 5.7 SE 6 9 3 5 1017.5 1017.5 0.0
29/07:30am 20.5 19.6 10.6 53 5.4 SE 6 9 3 5 1017.2 1017.2 0.0
29/07:00am 20.2 19.2 10.3 53 5.3 SE 6 9 3 5 1016.9 1016.9 0.0
29/06:30am 20.5 19.5 10.3 52 5.5 SE 6 9 3 5 1016.5 1016.5 0.0
29/06:00am 21.1 20.1 10.9 52 5.6 SE 7 11 4 6 1016.2 1016.2 0.0
29/05:30am 21.4 20.8 11.7 54 5.4 SSE 6 13 3 7 1016.0 1016.0 0.0
29/05:00am 21.6 20.8 11.6 53 5.6 SSE 7 15 4 8 1016.0 1016.0 0.0
29/04:30am 21.6 21.0 12.2 55 5.3 SSE 7 13 4 7 1015.8 1015.8 0.0
29/04:00am 21.9 21.5 13.0 57 5.1 SSE 7 15 4 8 1015.6 1015.6 0.0
29/03:30am 21.4 21.0 13.1 59 4.7 SSE 7 17 4 9 1015.7 1015.7 0.0
29/03:00am 21.0 21.1 13.9 64 4.1 SE 6 9 3 5 1016.0 1016.0 0.0
29/02:30am 19.5 20.9 16.5 83 1.8 SE 4 6 2 3 1016.3 1016.3 0.0
29/02:00am 18.2 20.1 16.7 91 0.9 SE 2 6 1 3 1016.4 1016.4 0.0
29/01:30am 18.8 21.4 17.6 93 0.7 CALM 0 0 0 0 1016.5 1016.5 0.0
29/01:00am 19.4 22.3 18.2 93 0.7 CALM 0 0 0 0 1016.6 1016.6 0.0
29/12:30am 19.5 21.8 17.8 90 1.0 SSE 2 2 1 1 1016.6 1016.6 0.0
29/12:00am 19.5 21.4 17.6 89 1.2 SSE 4 4 2 2 1016.7 1016.7 0.0
 
Date/Time
CST
Temp
°C
App
Temp
°C
Dew
Point
Rel
Hum
%
Delta-T
°C
Wind Press
QNH
hPa
Press
MSL
hPa
Rain
since 9 am
mm
Dir
 
Spd
km/h
Gust
km/h
Spd
kts
Gust
kts
28/11:30pm 19.8 21.8 17.9 89 1.2 SSE 4 6 2 3 1016.7 1016.7 0.0
28/11:00pm 20.2 22.4 18.3 89 1.2 S 4 6 2 3 1016.9 1016.9 0.0
28/10:30pm 19.8 21.8 17.8 88 1.2 S 4 6 2 3 1017.1 1017.1 0.0
28/10:00pm 19.7 22.2 17.3 86 1.5 CALM 0 0 0 0 1017.1 1017.1 0.0
28/09:30pm 20.1 22.6 17.3 84 1.7 CALM 0 0 0 0 1017.0 1017.0 0.0
28/09:00pm 21.3 24.1 17.9 81 2.1 CALM 0 0 0 0 1016.9 1016.9 0.0
28/08:30pm 22.0 24.6 18.4 80 2.3 NW 2 4 1 2 1016.6 1016.6 0.0
28/08:00pm 23.1 25.5 18.0 73 3.2 NW 2 4 1 2 1016.3 1016.3 0.0
28/07:30pm 24.6 27.2 18.3 68 4.0 NE 2 7 1 4 1015.9 1015.9 0.0
28/07:00pm 25.3 27.4 18.2 64 4.5 NNW 4 9 2 5 1015.3 1015.3 0.0
28/06:30pm 26.2 27.2 18.6 63 4.8 NNW 11 19 6 10 1015.0 1015.0 0.0
28/06:00pm 30.9 30.0 11.3 30 11.4 E 7 15 4 8 1014.5 1014.5 0.0
28/05:30pm 31.5 29.7 10.8 28 11.9 E 11 19 6 10 1014.1 1014.1 0.0
28/05:00pm 32.0 29.4 10.7 27 12.3 E 15 22 8 12 1014.0 1014.0 0.0

Other Formats:

Comma delimited format used in spreadsheet applications
http://www.bom.gov.au/fwo/IDD60801/IDD60801.94116.axf

JavaScript Object Notation format (JSON) in row-major order
http://www.bom.gov.au/fwo/IDD60801/IDD60801.94116.json